Senno, Belarus

12:33 PM MSK on February 01, 2015 (GMT +0300)
Vitebsk | Change Station
CLOSE
Current Station
Airport
Location: Viciebsk,
Elevation: 577 ft
Nearby Weather Stations

Elev 577 ft 55.17 °N, 30.22 °E | Updated 33 minutes ago

Low Drifting Snow
Low Drifting Snow
30 °F
Feels Like 18 °F
N
18
Wind Variable Wind from South
Gusts 29 mph

Today
High -- | Low -- °F
--% Chance of Precip.
Yesterday
High -- | Low -- °F
Precip. -- in
8:52 AM 5:38 PM
Waxing Gibbous, 94% visible
Pressure 29.21 in
Visibility -9999.0 miles
Clouds Mostly Cloudy 2000 ft
Windchill 18 °F
Dew Point 28 °F
Humidity 93%
Rainfall 0.00 in
Snow Depth Not available.
UV 1 out of 12
Pollen Not available.
Air Quality Not available.
Flu Activity Not available.
SPECI UMII 010900Z 19008G13MPS P6000 DRSN BKN020CB M01/M02 Q0989 R23/990336 TEMPO 2000 SHSN BLSN BKN005

More Conditions Fewer Conditions

Pressure 29.21 in
Visibility -9999.0 miles
Clouds Mostly Cloudy 2000 ft
Windchill 18 °F
Dew Point 28 °F
Humidity 93%
Rainfall 0.00 in
Snow Depth Not available.
UV 1 out of 12
Pollen Not available.
Air Quality Not available.
Flu Activity Not available.
SPECI UMII 010900Z 19008G13MPS P6000 DRSN BKN020CB M01/M02 Q0989 R23/990336 TEMPO 2000 SHSN BLSN BKN005

More Conditions Fewer Conditions

10-Day Weather Forecast

Almanac

Astronomy

Feb. 01, 2015 Rise Set
Actual Time
Civil Twilight
Nautical Twilight
Astronomical Twilight
Moon
Length of Visible Light
Length of Day
Tomorrow will be .
, % of the Moon is Illuminated

Today's Extremes

Country Highs Country Lows

Community

WunderPhotos

Upload Photos

1,792,338 photos uploaded!

WunderBlogs® & News

Nearby

Air Quality

  Air Quality AQ Index Pollutant
Not available.

Snow Depth

Station Depth Elevation

Earthquake Activity

City Distance Mag. Time & Date
Minimum magnitude displayed is 2.5.

Coastal Water Temperatures

Place Temperature

Nearby Weather Stations